createdAt,value
2022-12-09T00:00:02.496Z,98643.42
2022-12-09T00:00:12.996Z,98639.20
2022-12-09T00:00:22.628Z,98639.04
2022-12-09T00:00:32.526Z,98641.46
2022-12-09T00:00:42.637Z,98644.52
2022-12-09T00:00:52.540Z,98638.80
2022-12-09T00:01:02.471Z,98640.02
2022-12-09T00:01:12.689Z,98638.55
2022-12-09T00:01:22.585Z,98639.53
2022-12-09T00:01:32.448Z,98642.55
2022-12-09T00:01:42.575Z,98638.23
2022-12-09T00:01:52.573Z,98640.51
2022-12-09T00:02:02.535Z,98642.25
2022-12-09T00:02:12.904Z,98642.16
2022-12-09T00:02:22.707Z,98641.62
2022-12-09T00:02:32.965Z,98644.71
2022-12-09T00:02:42.586Z,98641.67
2022-12-09T00:02:52.608Z,98643.30
2022-12-09T00:03:02.731Z,98641.83
2022-12-09T00:03:12.657Z,98642.16
2022-12-09T00:03:23.977Z,98642.43
2022-12-09T00:03:32.646Z,98640.69
2022-12-09T00:03:42.820Z,98644.20
2022-12-09T00:03:52.560Z,98638.08
2022-12-09T00:04:02.810Z,98640.15
2022-12-09T00:04:12.878Z,98640.61
2022-12-09T00:04:22.573Z,98642.90
2022-12-09T00:04:32.953Z,98640.23
2022-12-09T00:04:42.611Z,98642.90
2022-12-09T00:04:52.951Z,98639.58
2022-12-09T00:05:02.684Z,98644.27
2022-12-09T00:05:12.680Z,98647.80
2022-12-09T00:05:22.765Z,98643.25
2022-12-09T00:05:32.556Z,98639.70
2022-12-09T00:05:42.504Z,98640.02
2022-12-09T00:05:52.657Z,98638.88
2022-12-09T00:06:02.704Z,98644.19
2022-12-09T00:06:12.512Z,98641.66
2022-12-09T00:06:22.541Z,98642.47
2022-12-09T00:06:32.427Z,98642.95
2022-12-09T00:06:42.629Z,98641.92
2022-12-09T00:06:52.503Z,98646.00
2022-12-09T00:07:02.461Z,98644.05
2022-12-09T00:07:12.781Z,98643.99
2022-12-09T00:07:22.564Z,98642.11
2022-12-09T00:07:32.437Z,98636.12
2022-12-09T00:07:42.566Z,98642.09
2022-12-09T00:07:52.544Z,98642.49
2022-12-09T00:08:02.519Z,98639.31
2022-12-09T00:08:12.583Z,98637.92
2022-12-09T00:08:22.538Z,98640.24
2022-12-09T00:08:32.508Z,98641.27
2022-12-09T00:08:42.886Z,98641.00
2022-12-09T00:08:52.818Z,98641.44
2022-12-09T00:09:02.641Z,98641.95
2022-12-09T00:09:12.704Z,98643.70
2022-12-09T00:09:22.661Z,98642.31
2022-12-09T00:09:32.488Z,98642.77
2022-12-09T00:09:42.454Z,98645.33
2022-12-09T00:09:52.504Z,98640.98
2022-12-09T00:10:02.541Z,98643.52
2022-12-09T00:10:12.840Z,98643.05
2022-12-09T00:10:22.526Z,98643.19
2022-12-09T00:10:32.469Z,98637.66
2022-12-09T00:10:42.569Z,98641.75
2022-12-09T00:10:52.573Z,98643.84
2022-12-09T00:11:02.628Z,98639.35
2022-12-09T00:11:12.513Z,98646.15
2022-12-09T00:11:22.568Z,98644.03
2022-12-09T00:11:32.516Z,98644.10
2022-12-09T00:11:42.754Z,98639.70
2022-12-09T00:11:52.782Z,98645.24
2022-12-09T00:12:02.542Z,98644.97
2022-12-09T00:12:12.719Z,98640.84
2022-12-09T00:12:22.549Z,98644.31
2022-12-09T00:12:32.730Z,98645.34
2022-12-09T00:12:42.640Z,98639.80
2022-12-09T00:12:52.456Z,98640.62
2022-12-09T00:13:02.855Z,98641.27
2022-12-09T00:13:12.751Z,98642.27
2022-12-09T00:13:22.527Z,98642.09
2022-12-09T00:13:32.569Z,98637.27
2022-12-09T00:13:42.644Z,98642.77
2022-12-09T00:13:52.748Z,98642.77
2022-12-09T00:14:02.710Z,98639.80
2022-12-09T00:14:12.593Z,98637.92
2022-12-09T00:14:22.745Z,98640.28
2022-12-09T00:14:32.455Z,98643.69
2022-12-09T00:14:42.822Z,98642.30
2022-12-09T00:14:52.845Z,98643.05
2022-12-09T00:15:02.553Z,98641.08
2022-12-09T00:15:12.547Z,98644.02
2022-12-09T00:15:22.723Z,98640.48
2022-12-09T00:15:32.558Z,98639.95
2022-12-09T00:15:42.644Z,98643.22
2022-12-09T00:15:52.545Z,98638.47
2022-12-09T00:16:02.620Z,98638.81
2022-12-09T00:16:12.602Z,98640.98
2022-12-09T00:16:22.594Z,98641.64
2022-12-09T00:16:32.709Z,98644.03
2022-12-09T00:16:42.960Z,98642.73
2022-12-09T00:16:52.747Z,98640.55
2022-12-09T00:17:02.752Z,98641.64
2022-12-09T00:17:12.856Z,98643.44
2022-12-09T00:17:22.695Z,98644.20
2022-12-09T00:17:32.520Z,98645.02
2022-12-09T00:17:42.479Z,98643.52
2022-12-09T00:17:52.556Z,98645.39
2022-12-09T00:18:02.454Z,98643.38
2022-12-09T00:18:12.488Z,98641.86
2022-12-09T00:18:22.462Z,98640.88
2022-12-09T00:18:32.531Z,98643.34
2022-12-09T00:18:42.788Z,98639.06
2022-12-09T00:18:52.486Z,98641.33
2022-12-09T00:19:02.567Z,98637.16
2022-12-09T00:19:12.541Z,98640.48
2022-12-09T00:19:22.509Z,98638.96
2022-12-09T00:19:32.561Z,98641.03
2022-12-09T00:19:42.468Z,98636.24
2022-12-09T00:19:52.699Z,98641.52
2022-12-09T00:20:02.637Z,98637.56
2022-12-09T00:20:12.713Z,98644.23
2022-12-09T00:20:22.457Z,98640.31
2022-12-09T00:20:32.522Z,98640.97
2022-12-09T00:20:42.561Z,98641.97
2022-12-09T00:20:52.596Z,98642.27
2022-12-09T00:21:02.471Z,98646.34
2022-12-09T00:21:12.496Z,98639.33
2022-12-09T00:21:22.663Z,98638.81
2022-12-09T00:21:32.637Z,98644.30
2022-12-09T00:21:42.423Z,98642.75
2022-12-09T00:21:52.560Z,98637.80
2022-12-09T00:22:02.594Z,98633.64
2022-12-09T00:22:12.432Z,98636.25
2022-12-09T00:22:22.494Z,98635.32
2022-12-09T00:22:32.687Z,98635.50
2022-12-09T00:22:42.631Z,98635.45
2022-12-09T00:22:52.724Z,98640.41
2022-12-09T00:23:02.743Z,98640.48
2022-12-09T00:23:12.446Z,98638.38
2022-12-09T00:23:22.536Z,98636.68
2022-12-09T00:23:32.740Z,98637.50
2022-12-09T00:23:42.508Z,98639.37
2022-12-09T00:23:52.597Z,98636.75
2022-12-09T00:24:02.584Z,98643.44
2022-12-09T00:24:12.854Z,98636.61
2022-12-09T00:24:22.510Z,98640.23
2022-12-09T00:24:32.546Z,98638.60
2022-12-09T00:24:42.683Z,98633.20
2022-12-09T00:24:52.440Z,98637.02
2022-12-09T00:25:02.792Z,98637.75
2022-12-09T00:25:12.529Z,98634.89
2022-12-09T00:25:22.554Z,98636.94
2022-12-09T00:25:32.761Z,98642.03
2022-12-09T00:25:42.545Z,98640.52
2022-12-09T00:25:52.500Z,98640.70
2022-12-09T00:26:02.771Z,98639.12
2022-12-09T00:26:12.491Z,98637.09
2022-12-09T00:26:22.454Z,98635.51
2022-12-09T00:26:32.555Z,98635.67
2022-12-09T00:26:42.535Z,98641.38
2022-12-09T00:26:52.602Z,98635.67
2022-12-09T00:27:02.693Z,98638.17
2022-12-09T00:27:12.496Z,98636.77
2022-12-09T00:27:22.643Z,98636.94
2022-12-09T00:27:32.517Z,98639.66
2022-12-09T00:27:42.660Z,98637.48
2022-12-09T00:27:52.694Z,98638.95
2022-12-09T00:28:02.499Z,98640.77
2022-12-09T00:28:12.429Z,98636.91
2022-12-09T00:28:22.490Z,98633.59
2022-12-09T00:28:32.441Z,98636.14
2022-12-09T00:28:42.480Z,98636.30
2022-12-09T00:28:52.557Z,98635.40
2022-12-09T00:29:02.673Z,98635.20
2022-12-09T00:29:12.688Z,98636.72
2022-12-09T00:32:24.823Z,98632.72
2022-12-09T00:32:25.376Z,98631.11
2022-12-09T00:32:25.836Z,98631.07
2022-12-09T00:32:26.072Z,98632.12
2022-12-09T00:32:26.620Z,98631.87
2022-12-09T00:32:31.766Z,98630.27
2022-12-09T00:32:34.834Z,98633.19
2022-12-09T00:32:44.830Z,98630.66
2022-12-09T00:32:54.847Z,98628.74
2022-12-09T00:33:04.790Z,98630.07
2022-12-09T00:33:14.708Z,98630.81
2022-12-09T00:33:24.802Z,98629.09
2022-12-09T00:33:35.064Z,98632.11
2022-12-09T00:33:44.678Z,98630.56
2022-12-09T00:33:54.950Z,98633.20
2022-12-09T00:34:04.978Z,98632.02
2022-12-09T00:34:14.760Z,98634.08
2022-12-09T00:34:24.773Z,98635.86
2022-12-09T00:34:34.916Z,98635.12
2022-12-09T00:34:44.834Z,98634.80
2022-12-09T00:34:54.702Z,98628.37
2022-12-09T00:35:04.844Z,98633.63
2022-12-09T00:35:14.991Z,98638.63
2022-12-09T00:35:24.750Z,98634.61
2022-12-09T00:35:34.862Z,98638.85
2022-12-09T00:35:44.997Z,98636.59
2022-12-09T00:35:54.720Z,98635.12
2022-12-09T00:36:04.854Z,98635.05
2022-12-09T00:36:14.768Z,98634.14
2022-12-09T00:36:24.792Z,98638.85
2022-12-09T00:36:34.794Z,98637.78
2022-12-09T00:36:44.709Z,98635.72
2022-12-09T00:36:54.703Z,98631.88
2022-12-09T00:37:04.722Z,98636.98
2022-12-09T00:37:14.979Z,98641.81
2022-12-09T00:37:24.799Z,98635.84
2022-12-09T00:37:34.993Z,98638.61
2022-12-09T00:37:44.820Z,98634.88
2022-12-09T00:37:54.753Z,98638.52
2022-12-09T00:38:04.877Z,98635.48
2022-12-09T00:38:14.849Z,98637.88
2022-12-09T00:38:24.935Z,98636.45
2022-12-09T00:38:34.821Z,98641.47
2022-12-09T00:38:44.702Z,98638.32
2022-12-09T00:38:54.760Z,98638.21
2022-12-09T00:39:04.707Z,98640.02
2022-12-09T00:39:14.821Z,98640.24
2022-12-09T00:39:24.773Z,98637.70
2022-12-09T00:39:34.715Z,98639.80
2022-12-09T00:39:44.700Z,98642.81
2022-12-09T00:39:54.899Z,98643.20
2022-12-09T00:40:05.271Z,98644.00
2022-12-09T00:40:14.748Z,98638.16
2022-12-09T00:40:24.985Z,98639.23
2022-12-09T00:40:34.787Z,98638.34
2022-12-09T00:40:44.928Z,98640.83
2022-12-09T00:40:54.734Z,98636.61
2022-12-09T00:41:05.001Z,98639.15
2022-12-09T00:41:14.788Z,98642.08
2022-12-09T00:41:24.773Z,98636.61
2022-12-09T00:41:34.720Z,98638.09
2022-12-09T00:41:44.709Z,98642.33
2022-12-09T00:41:54.717Z,98638.61
2022-12-09T00:42:04.700Z,98643.82
2022-12-09T00:42:14.943Z,98642.73
2022-12-09T00:42:24.772Z,98640.12
2022-12-09T00:42:34.785Z,98641.84
2022-12-09T00:42:44.738Z,98638.24
2022-12-09T00:42:54.690Z,98640.14
2022-12-09T00:43:04.809Z,98638.89
2022-12-09T00:43:14.909Z,98636.73
2022-12-09T00:43:24.910Z,98638.59
2022-12-09T00:43:34.839Z,98637.28
2022-12-09T00:43:44.769Z,98642.91
2022-12-09T00:43:54.955Z,98641.52
2022-12-09T00:44:04.765Z,98640.86
2022-12-09T00:44:14.830Z,98645.86
2022-12-09T00:44:25.039Z,98643.47
2022-12-09T00:44:34.679Z,98642.66
2022-12-09T00:44:44.736Z,98639.40
2022-12-09T00:44:55.016Z,98636.47
2022-12-09T00:45:05.007Z,98638.37
2022-12-09T00:45:14.784Z,98638.06
2022-12-09T00:45:24.746Z,98642.86
2022-12-09T00:45:34.818Z,98640.74
2022-12-09T00:45:44.875Z,98640.09
2022-12-09T00:45:54.864Z,98638.37
2022-12-09T00:46:04.860Z,98639.83
2022-12-09T00:46:14.847Z,98639.60
2022-12-09T00:46:24.771Z,98637.16
2022-12-09T00:46:35.104Z,98636.94
2022-12-09T00:46:44.837Z,98639.33
2022-12-09T00:46:54.811Z,98637.64
2022-12-09T00:47:04.967Z,98638.24
2022-12-09T00:47:14.883Z,98642.08
2022-12-09T00:47:24.855Z,98642.82
2022-12-09T00:47:34.924Z,98645.98
2022-12-09T00:47:45.148Z,98641.09
2022-12-09T00:47:54.752Z,98638.30
2022-12-09T00:48:04.812Z,98639.80
2022-12-09T00:48:14.773Z,98644.53
2022-12-09T00:48:24.789Z,98642.57
2022-12-09T00:48:34.918Z,98643.55
2022-12-09T00:48:44.712Z,98643.94
2022-12-09T00:48:54.866Z,98641.66
2022-12-09T00:49:04.751Z,98640.45
2022-12-09T00:49:14.940Z,98640.45
2022-12-09T00:49:24.786Z,98640.80
2022-12-09T00:49:34.776Z,98639.27
2022-12-09T00:49:44.803Z,98640.04
2022-12-09T00:49:54.803Z,98641.67
2022-12-09T00:50:05.181Z,98641.88
2022-12-09T00:50:15.001Z,98641.23
2022-12-09T00:50:24.817Z,98638.16
2022-12-09T00:50:34.887Z,98639.23
2022-12-09T00:50:44.793Z,98639.40
2022-12-09T00:50:54.972Z,98638.66
2022-12-09T00:51:04.841Z,98637.56
2022-12-09T00:51:14.924Z,98637.68
2022-12-09T00:51:24.765Z,98636.28
2022-12-09T00:51:34.814Z,98634.50
2022-12-09T00:51:44.779Z,98638.73
2022-12-09T00:51:55.101Z,98640.85
2022-12-09T00:52:04.914Z,98638.62
2022-12-09T00:52:15.046Z,98641.93
2022-12-09T00:52:24.921Z,98640.91
2022-12-09T00:52:34.751Z,98641.23
2022-12-09T00:52:44.965Z,98639.11
2022-12-09T00:52:54.731Z,98644.77
2022-12-09T00:53:04.852Z,98639.92
2022-12-09T00:53:15.018Z,98640.25
2022-12-09T00:53:24.700Z,98640.32
2022-12-09T00:53:34.774Z,98640.00
2022-12-09T00:53:44.903Z,98640.38
2022-12-09T00:53:55.170Z,98640.62
2022-12-09T00:54:04.868Z,98643.56
2022-12-09T00:54:15.029Z,98643.89
2022-12-09T00:54:24.718Z,98645.38
2022-12-09T00:54:34.822Z,98641.46
2022-12-09T00:54:44.951Z,98641.52
2022-12-09T00:54:55.069Z,98643.47
2022-12-09T00:55:05.049Z,98643.31
2022-12-09T00:55:14.727Z,98642.60
2022-12-09T00:55:24.849Z,98638.75
2022-12-09T00:55:35.142Z,98634.19
2022-12-09T00:55:44.886Z,98642.77
2022-12-09T00:55:54.698Z,98637.88
2022-12-09T00:56:04.797Z,98640.16
2022-12-09T00:56:14.684Z,98641.12
2022-12-09T00:56:24.845Z,98641.28
2022-12-09T00:56:34.776Z,98645.84
2022-12-09T00:56:44.763Z,98639.18
2022-12-09T00:56:54.922Z,98638.53
2022-12-09T00:57:04.733Z,98637.05
2022-12-09T00:57:15.109Z,98639.18
2022-12-09T00:57:24.764Z,98639.73
2022-12-09T00:57:34.848Z,98640.32
2022-12-09T00:57:44.780Z,98642.26
2022-12-09T00:57:55.044Z,98640.38
2022-12-09T00:58:04.938Z,98643.91
2022-12-09T00:58:14.965Z,98639.94
2022-12-09T00:58:24.876Z,98641.03
2022-12-09T00:58:34.728Z,98642.44
2022-12-09T00:58:44.808Z,98638.63
2022-12-09T00:58:54.955Z,98636.91
2022-12-09T00:59:04.907Z,98642.12
2022-12-09T00:59:14.777Z,98639.48
2022-12-09T00:59:24.725Z,98640.59
2022-12-09T00:59:34.781Z,98640.62
2022-12-09T00:59:44.740Z,98643.95
2022-12-09T00:59:54.744Z,98642.17
2022-12-09T01:00:05.329Z,98640.91
2022-12-09T01:00:14.782Z,98637.56
2022-12-09T01:00:25.004Z,98638.56
2022-12-09T01:00:34.955Z,98638.73
2022-12-09T01:00:44.776Z,98640.83
2022-12-09T01:00:54.793Z,98637.97
2022-12-09T01:01:04.911Z,98644.76
2022-12-09T01:01:15.052Z,98639.81
2022-12-09T01:01:24.848Z,98640.31
2022-12-09T01:01:34.758Z,98637.60
2022-12-09T01:01:44.833Z,98636.86
2022-12-09T01:01:54.972Z,98640.64
2022-12-09T01:02:05.050Z,98639.39
2022-12-09T01:02:14.963Z,98643.14
2022-12-09T01:02:24.878Z,98639.39
2022-12-09T01:02:34.816Z,98637.20
2022-12-09T01:02:45.108Z,98638.14
2022-12-09T01:02:54.937Z,98637.67
2022-12-09T01:03:05.219Z,98639.12
2022-12-09T01:03:15.193Z,98641.31
2022-12-09T01:03:25.094Z,98636.55
2022-12-09T01:03:35.333Z,98636.31
2022-12-09T01:03:45.140Z,98642.29
2022-12-09T01:03:54.829Z,98636.55
2022-12-09T01:04:05.185Z,98638.92
2022-12-09T01:04:14.877Z,98637.85
2022-12-09T01:04:24.924Z,98637.59
2022-12-09T01:04:35.086Z,98637.81
2022-12-09T01:04:44.951Z,98636.51
2022-12-09T01:04:54.966Z,98640.16
2022-12-09T01:05:04.910Z,98636.23
2022-12-09T01:05:14.957Z,98637.38
2022-12-09T01:05:24.844Z,98635.11
2022-12-09T01:05:34.957Z,98636.91
2022-12-09T01:05:44.906Z,98637.39
2022-12-09T01:05:54.707Z,98633.86
2022-12-09T01:06:04.892Z,98635.08
2022-12-09T01:06:14.762Z,98637.13
2022-12-09T01:06:25.022Z,98639.53
2022-12-09T01:06:34.752Z,98640.91
2022-12-09T01:06:44.740Z,98639.70
2022-12-09T01:06:54.708Z,98639.00
2022-12-09T01:07:04.808Z,98642.91
2022-12-09T01:07:14.827Z,98640.53
2022-12-09T01:07:24.714Z,98645.56
2022-12-09T01:07:34.928Z,98643.90
2022-12-09T01:07:44.836Z,98637.73
2022-12-09T01:07:54.799Z,98643.25
2022-12-09T01:08:04.964Z,98641.94
2022-12-09T01:08:15.031Z,98638.47
2022-12-09T01:08:25.195Z,98636.80
2022-12-09T01:08:38.816Z,98647.32
2022-12-09T01:08:45.880Z,98642.59
2022-12-09T01:08:55.121Z,98646.18
2022-12-09T01:09:04.776Z,98641.77
2022-12-09T01:09:14.813Z,98641.09
2022-12-09T01:09:24.810Z,98640.95
2022-12-09T01:09:34.942Z,98643.20
2022-12-09T01:09:44.806Z,98647.95
2022-12-09T01:09:54.877Z,98643.93
2022-12-09T01:10:05.242Z,98652.34
2022-12-09T01:10:15.015Z,98644.74
2022-12-09T01:10:24.820Z,98645.77
2022-12-09T01:10:34.798Z,98645.28
2022-12-09T01:10:44.768Z,98648.87
2022-12-09T01:10:54.681Z,98647.23
2022-12-09T01:11:04.916Z,98648.25
2022-12-09T01:11:14.767Z,98646.09
2022-12-09T01:11:24.728Z,98647.26
2022-12-09T01:11:34.975Z,98647.41
2022-12-09T01:11:44.967Z,98646.27
2022-12-09T01:11:54.866Z,98647.56
2022-12-09T01:12:04.683Z,98650.36
2022-12-09T01:12:14.711Z,98648.61
2022-12-09T01:12:24.785Z,98651.97
2022-12-09T01:12:34.704Z,98652.12
2022-12-09T01:12:45.018Z,98647.96
2022-12-09T01:12:54.759Z,98652.94
2022-12-09T01:13:04.896Z,98650.19
2022-12-09T01:13:14.942Z,98647.41
2022-12-09T01:13:24.842Z,98651.38
2022-12-09T01:13:34.977Z,98652.28
2022-12-09T01:13:44.787Z,98653.77
2022-12-09T01:13:54.798Z,98651.55
2022-12-09T01:14:04.792Z,98648.67
2022-12-09T01:14:14.678Z,98652.14
2022-12-09T01:14:24.859Z,98649.75
2022-12-09T01:14:34.741Z,98659.86
2022-12-09T01:14:45.055Z,98655.04
2022-12-09T01:14:54.791Z,98655.67
2022-12-09T01:15:04.781Z,98655.30
2022-12-09T01:15:14.932Z,98654.81
2022-12-09T01:15:24.951Z,98653.73
2022-12-09T01:15:34.983Z,98652.88
2022-12-09T01:15:44.959Z,98654.16
2022-12-09T01:15:54.827Z,98651.74
2022-12-09T01:16:04.856Z,98653.73
2022-12-09T01:16:15.012Z,98657.44
2022-12-09T01:16:24.915Z,98656.14
2022-12-09T01:16:35.030Z,98661.53
2022-12-09T01:16:44.991Z,98655.14
2022-12-09T01:16:54.886Z,98662.84
2022-12-09T01:17:05.200Z,98660.06
2022-12-09T01:17:15.078Z,98657.80
2022-12-09T01:17:25.162Z,98657.31
2022-12-09T01:17:35.020Z,98657.30
2022-12-09T01:17:44.793Z,98656.59
2022-12-09T01:17:54.729Z,98659.69
2022-12-09T01:18:04.777Z,98659.37
2022-12-09T01:18:15.049Z,98657.97
2022-12-09T01:18:24.686Z,98660.34
2022-12-09T01:18:34.771Z,98657.16
2022-12-09T01:18:45.050Z,98661.64
2022-12-09T01:18:54.837Z,98658.44
2022-12-09T01:19:04.954Z,98661.86
2022-12-09T01:19:14.806Z,98659.44
2022-12-09T01:19:24.748Z,98655.53
2022-12-09T01:19:34.910Z,98655.00
2022-12-09T01:19:44.699Z,98659.70
2022-12-09T01:19:54.772Z,98656.91
2022-12-09T01:20:05.308Z,98656.93
2022-12-09T01:20:14.688Z,98657.02
2022-12-09T01:20:24.740Z,98655.06
2022-12-09T01:20:34.859Z,98653.44
2022-12-09T01:20:44.982Z,98654.32
2022-12-09T01:20:54.901Z,98658.31
2022-12-09T01:21:04.784Z,98655.25
2022-12-09T01:21:14.734Z,98656.06
2022-12-09T01:21:25.154Z,98660.06
2022-12-09T01:21:34.887Z,98658.83
2022-12-09T01:21:44.964Z,98662.55
2022-12-09T01:21:54.931Z,98657.69
2022-12-09T01:22:04.778Z,98662.99
2022-12-09T01:22:14.943Z,98659.95
2022-12-09T01:22:24.945Z,98660.11
2022-12-09T01:22:34.743Z,98658.27
2022-12-09T01:22:44.731Z,98660.50
2022-12-09T01:22:54.954Z,98657.38
2022-12-09T01:23:04.710Z,98657.56
2022-12-09T01:23:14.959Z,98661.29
2022-12-09T01:23:24.902Z,98657.17
2022-12-09T01:23:34.748Z,98656.56
2022-12-09T01:23:44.698Z,98657.17
2022-12-09T01:23:54.841Z,98658.30
2022-12-09T01:24:04.787Z,98658.40
2022-12-09T01:24:14.817Z,98660.39
2022-12-09T01:24:24.718Z,98660.91
2022-12-09T01:24:34.850Z,98657.59
2022-12-09T01:24:44.813Z,98665.28
2022-12-09T01:24:54.716Z,98661.84
2022-12-09T01:25:05.225Z,98656.93
2022-12-09T01:25:14.811Z,98659.94
2022-12-09T01:25:24.684Z,98654.56
2022-12-09T01:25:34.912Z,98657.50
2022-12-09T01:25:44.934Z,98659.92
2022-12-09T01:25:54.729Z,98656.52
2022-12-09T01:26:05.037Z,98659.61
2022-12-09T01:26:14.913Z,98658.84
2022-12-09T01:26:24.749Z,98661.64
2022-12-09T01:26:34.996Z,98660.98
2022-12-09T01:26:45.081Z,98657.50
2022-12-09T01:26:54.774Z,98660.45
2022-12-09T01:27:04.801Z,98656.04
2022-12-09T01:27:14.953Z,98657.20
2022-12-09T01:27:24.978Z,98657.58
2022-12-09T01:27:34.754Z,98663.39
2022-12-09T01:27:44.868Z,98662.39
2022-12-09T01:27:54.950Z,98659.86
2022-12-09T01:28:05.050Z,98660.45
2022-12-09T01:28:14.750Z,98656.60
2022-12-09T01:28:24.733Z,98665.23
2022-12-09T01:28:34.765Z,98663.55
2022-12-09T01:28:45.005Z,98656.55
2022-12-09T01:28:54.809Z,98661.16
2022-12-09T01:29:04.827Z,98662.34
2022-12-09T01:29:14.834Z,98660.95
2022-12-09T01:29:25.091Z,98662.99
2022-12-09T01:29:35.030Z,98658.88
2022-12-09T01:29:44.961Z,98662.70
2022-12-09T01:29:54.682Z,98658.03
2022-12-09T01:30:05.353Z,98661.01
2022-12-09T01:30:14.758Z,98663.83
2022-12-09T01:30:24.817Z,98657.26
2022-12-09T01:30:34.914Z,98657.69
2022-12-09T01:30:44.814Z,98662.50
2022-12-09T01:30:54.959Z,98662.06
2022-12-09T01:31:04.865Z,98663.91
2022-12-09T01:31:14.976Z,98663.36
2022-12-09T01:31:24.944Z,98663.08
2022-12-09T01:31:35.033Z,98662.38
2022-12-09T01:31:45.227Z,98660.26
2022-12-09T01:31:54.861Z,98661.44
2022-12-09T01:32:04.979Z,98661.44
2022-12-09T01:32:14.788Z,98666.69
2022-12-09T01:32:25.025Z,98661.73
2022-12-09T01:32:34.926Z,98657.19
2022-12-09T01:32:44.995Z,98660.33
2022-12-09T01:32:54.832Z,98659.67
2022-12-09T01:33:04.775Z,98664.38
2022-12-09T01:33:14.683Z,98662.53
2022-12-09T01:33:24.799Z,98663.06
2022-12-09T01:33:34.823Z,98660.89
2022-12-09T01:33:44.867Z,98655.20
2022-12-09T01:33:54.808Z,98658.22
2022-12-09T01:34:05.128Z,98661.19
2022-12-09T01:34:15.056Z,98656.52
2022-12-09T01:34:24.748Z,98657.86
2022-12-09T01:34:34.989Z,98659.76
2022-12-09T01:34:44.739Z,98666.20
2022-12-09T01:34:55.176Z,98657.62
2022-12-09T01:35:05.143Z,98663.01
2022-12-09T01:35:14.916Z,98661.62
2022-12-09T01:35:24.917Z,98658.86
2022-12-09T01:35:34.760Z,98653.81
2022-12-09T01:35:44.793Z,98662.30
2022-12-09T01:35:54.793Z,98661.83
2022-12-09T01:36:04.944Z,98662.78
2022-12-09T01:36:15.081Z,98661.32
2022-12-09T01:36:24.732Z,98659.20
2022-12-09T01:36:35.012Z,98658.23
2022-12-09T01:36:44.779Z,98663.44
2022-12-09T01:36:54.713Z,98664.58
2022-12-09T01:37:04.754Z,98663.83
2022-12-09T01:37:14.898Z,98661.43
2022-12-09T01:37:24.895Z,98662.84
2022-12-09T01:37:34.760Z,98668.88
2022-12-09T01:37:44.968Z,98666.03
2022-12-09T01:37:54.745Z,98665.18
2022-12-09T01:38:04.716Z,98664.31
2022-12-09T01:38:14.822Z,98664.64
2022-12-09T01:38:24.678Z,98664.53
2022-12-09T01:38:34.707Z,98664.91
2022-12-09T01:38:44.824Z,98662.73
2022-12-09T01:38:54.825Z,98661.22
2022-12-09T01:39:04.878Z,98664.89
2022-12-09T01:39:14.687Z,98664.41
2022-12-09T01:39:24.800Z,98661.84
2022-12-09T01:39:34.984Z,98664.41
2022-12-09T01:39:45.099Z,98662.69
2022-12-09T01:39:54.908Z,98663.17
2022-12-09T01:40:05.241Z,98662.52
2022-12-09T01:40:14.871Z,98665.12
2022-12-09T01:40:24.714Z,98659.42
2022-12-09T01:40:34.809Z,98662.52
2022-12-09T01:40:44.849Z,98660.05
2022-12-09T01:40:54.686Z,98662.61
2022-12-09T01:41:04.786Z,98657.56
2022-12-09T01:41:14.843Z,98656.30
2022-12-09T01:41:25.006Z,98659.73
2022-12-09T01:41:35.090Z,98660.66
2022-12-09T01:41:44.712Z,98658.30
2022-12-09T01:41:54.899Z,98659.12
2022-12-09T01:42:04.827Z,98660.26
2022-12-09T01:42:15.008Z,98660.86
2022-12-09T01:42:24.756Z,98661.40
2022-12-09T01:42:34.715Z,98660.16
2022-12-09T01:42:44.977Z,98657.98
2022-12-09T01:42:54.838Z,98659.39
2022-12-09T01:43:04.732Z,98657.69
2022-12-09T01:43:14.893Z,98662.96
2022-12-09T01:43:25.065Z,98661.47
2022-12-09T01:43:35.033Z,98656.97
2022-12-09T01:43:44.818Z,98663.91
2022-12-09T01:43:54.782Z,98661.55
2022-12-09T01:44:05.060Z,98660.20
2022-12-09T01:44:14.867Z,98659.75
2022-12-09T01:44:24.703Z,98660.02
2022-12-09T01:44:35.022Z,98661.52
2022-12-09T01:44:45.037Z,98663.64
2022-12-09T01:44:54.975Z,98653.70
2022-12-09T01:45:04.799Z,98663.55
2022-12-09T01:45:14.701Z,98663.72
2022-12-09T01:45:24.908Z,98662.41
2022-12-09T01:45:34.797Z,98661.91
2022-12-09T01:45:44.821Z,98661.91
2022-12-09T01:45:54.849Z,98665.88
2022-12-09T01:46:04.977Z,98666.45
2022-12-09T01:46:14.771Z,98664.61
2022-12-09T01:46:24.812Z,98660.19
2022-12-09T01:46:34.796Z,98663.30
2022-12-09T01:46:44.933Z,98661.44
2022-12-09T01:46:54.914Z,98663.28
2022-12-09T01:47:04.877Z,98664.70
2022-12-09T01:47:14.875Z,98666.44
2022-12-09T01:47:25.012Z,98665.19
2022-12-09T01:47:34.906Z,98663.94
2022-12-09T01:47:45.173Z,98661.94
2022-12-09T01:47:55.071Z,98661.94
2022-12-09T01:48:04.848Z,98661.72
2022-12-09T01:48:15.171Z,98661.08
2022-12-09T01:48:25.039Z,98661.67
2022-12-09T01:48:35.004Z,98659.77
2022-12-09T01:48:44.938Z,98660.91
2022-12-09T01:48:54.717Z,98657.05
2022-12-09T01:49:05.056Z,98659.52
2022-12-09T01:49:14.972Z,98662.43
2022-12-09T01:49:24.792Z,98662.78
2022-12-09T01:49:34.978Z,98662.67
2022-12-09T01:49:44.680Z,98662.50
2022-12-09T01:49:54.937Z,98665.88
2022-12-09T01:50:05.615Z,98665.71
2022-12-09T01:50:14.888Z,98664.34
2022-12-09T01:50:24.714Z,98665.11
2022-12-09T01:50:34.999Z,98658.11
2022-12-09T01:50:44.762Z,98660.75
2022-12-09T01:50:54.979Z,98660.42
2022-12-09T01:51:04.808Z,98659.28
2022-12-09T01:51:14.775Z,98656.89
2022-12-09T01:51:24.721Z,98655.47
2022-12-09T01:51:34.801Z,98662.21
2022-12-09T01:51:45.125Z,98656.09
2022-12-09T01:51:55.105Z,98660.59
2022-12-09T01:52:04.785Z,98656.76
2022-12-09T01:52:14.730Z,98659.04
2022-12-09T01:52:25.063Z,98658.49
2022-12-09T01:52:34.789Z,98662.27
2022-12-09T01:52:44.820Z,98657.64
2022-12-09T01:52:54.688Z,98659.62
2022-12-09T01:53:05.078Z,98658.20
2022-12-09T01:53:14.736Z,98654.53
2022-12-09T01:53:25.113Z,98652.95
2022-12-09T01:53:34.813Z,98656.70
2022-12-09T01:53:44.709Z,98656.75
2022-12-09T01:53:54.709Z,98658.81
2022-12-09T01:54:05.012Z,98654.14
2022-12-09T01:54:14.790Z,98657.56
2022-12-09T01:54:24.783Z,98659.36
2022-12-09T01:54:34.797Z,98654.05
2022-12-09T01:54:44.789Z,98654.05
2022-12-09T01:54:54.772Z,98655.62
2022-12-09T01:55:04.693Z,98655.62
2022-12-09T01:55:14.751Z,98652.83
2022-12-09T01:55:24.685Z,98653.45
2022-12-09T01:55:35.081Z,98653.78
2022-12-09T01:55:45.099Z,98652.27
2022-12-09T01:55:54.719Z,98653.58
2022-12-09T01:56:04.902Z,98654.55
2022-12-09T01:56:14.717Z,98653.31
2022-12-09T01:56:24.694Z,98651.86
2022-12-09T01:56:34.998Z,98652.44
2022-12-09T01:56:44.694Z,98651.97
2022-12-09T01:56:54.718Z,98651.81
2022-12-09T01:57:04.853Z,98653.11
2022-12-09T01:57:14.769Z,98651.95
2022-12-09T01:57:25.122Z,98648.69
2022-12-09T01:57:35.102Z,98654.09
2022-12-09T01:57:45.067Z,98655.23
2022-12-09T01:57:54.816Z,98653.33
2022-12-09T01:58:04.977Z,98653.98
2022-12-09T01:58:14.961Z,98654.86
2022-12-09T01:58:24.739Z,98648.67
2022-12-09T01:58:34.702Z,98654.35
2022-12-09T01:58:44.756Z,98649.05
2022-12-09T01:58:54.975Z,98651.88
2022-12-09T01:59:04.816Z,98651.82
2022-12-09T01:59:14.707Z,98651.88
2022-12-09T01:59:24.856Z,98650.73
2022-12-09T01:59:34.792Z,98651.49